createdAt,value
2023-01-13T00:01:21.733Z,95443.81
2023-01-13T00:03:48.875Z,95450.72
2023-01-13T00:06:17.720Z,95454.63
2023-01-13T00:08:44.618Z,95459.50
2023-01-13T00:11:11.339Z,95451.16
2023-01-13T00:13:38.842Z,95450.72
2023-01-13T00:16:08.149Z,95452.06
2023-01-13T00:18:36.952Z,95451.88
2023-01-13T00:21:07.826Z,95460.03
2023-01-13T00:23:35.436Z,95459.38
2023-01-13T00:26:05.290Z,95454.81
2023-01-13T00:28:32.504Z,95452.03
2023-01-13T00:31:11.659Z,95456.63
2023-01-13T00:33:39.239Z,95458.25
2023-01-13T00:36:07.611Z,95456.88
2023-01-13T00:38:35.972Z,95459.16
2023-01-13T00:41:07.678Z,95438.94
2023-01-13T00:43:35.985Z,95457.53
2023-01-13T00:46:03.881Z,95459.09
2023-01-13T00:48:32.539Z,95461.25
2023-01-13T00:51:08.016Z,95458.09
2023-01-13T00:53:37.386Z,95459.97
2023-01-13T00:56:05.463Z,95442.59
2023-01-13T00:58:34.086Z,95433.16
2023-01-13T01:01:02.336Z,95446.28
2023-01-13T01:03:29.739Z,95447.69
2023-01-13T01:05:57.567Z,95452.19
2023-01-13T01:08:24.274Z,95443.56
2023-01-13T01:11:00.867Z,95443.53
2023-01-13T01:13:27.674Z,95438.09
2023-01-13T01:15:54.362Z,95438.25
2023-01-13T01:18:21.107Z,95419.22
2023-01-13T01:20:47.790Z,95423.75
2023-01-13T01:23:14.687Z,95433.06
2023-01-13T01:25:41.430Z,95428.84
2023-01-13T01:28:08.132Z,95428.56
2023-01-13T01:30:34.756Z,95432.78
2023-01-13T01:33:03.218Z,95433.56
2023-01-13T01:35:29.990Z,95434.06
2023-01-13T01:37:56.829Z,95419.97
2023-01-13T01:40:23.543Z,95421.19
2023-01-13T01:43:08.417Z,95411.88
2023-01-13T01:45:35.375Z,95421.66
2023-01-13T01:48:06.037Z,95405.38
2023-01-13T01:50:33.583Z,95406.06
2023-01-13T01:53:10.243Z,95413.75
2023-01-13T01:55:38.276Z,95413.28
2023-01-13T01:58:15.815Z,95417.47
2023-01-13T02:00:42.965Z,95423.34
2023-01-13T02:03:11.061Z,95408.75
2023-01-13T02:05:38.973Z,95418.41
2023-01-13T02:08:07.985Z,95407.75
2023-01-13T02:10:35.049Z,95409.63
2023-01-13T02:13:06.328Z,95410.47
2023-01-13T02:15:43.092Z,95411.94
2023-01-13T02:18:31.521Z,95403.56
2023-01-13T02:21:22.695Z,95409.31
2023-01-13T02:24:32.960Z,95399.81
2023-01-13T02:27:11.869Z,95407.47
2023-01-13T02:30:19.389Z,95408.78
2023-01-13T02:33:04.788Z,95404.63
2023-01-13T02:35:37.412Z,95403.28
2023-01-13T02:38:05.959Z,95401.13
2023-01-13T02:40:41.363Z,95404.00
2023-01-13T02:43:33.289Z,95400.28
2023-01-13T02:46:15.771Z,95411.16
2023-01-13T02:48:45.608Z,95408.59
2023-01-13T02:51:16.100Z,95412.25
2023-01-13T02:54:18.214Z,95410.19
2023-01-13T02:56:48.727Z,95408.63
2023-01-13T02:59:15.734Z,95391.75
2023-01-13T03:01:43.340Z,95402.78
2023-01-13T03:04:34.539Z,95410.06
2023-01-13T03:07:21.216Z,95416.16
2023-01-13T03:10:17.732Z,95409.66
2023-01-13T03:12:48.681Z,95401.00
2023-01-13T03:15:40.411Z,95406.41
2023-01-13T03:18:19.047Z,95408.78
2023-01-13T03:21:01.473Z,95409.41
2023-01-13T03:23:51.930Z,95403.06
2023-01-13T03:26:44.104Z,95408.94
2023-01-13T03:29:54.098Z,95414.81
2023-01-13T03:32:28.760Z,95415.78
2023-01-13T03:35:15.897Z,95420.69
2023-01-13T03:38:18.021Z,95411.47
2023-01-13T03:40:51.354Z,95416.72
2023-01-13T03:43:51.236Z,95414.88
2023-01-13T03:46:26.794Z,95418.88
2023-01-13T03:48:58.099Z,95416.78
2023-01-13T03:51:29.338Z,95427.22
2023-01-13T03:54:01.337Z,95413.50
2023-01-13T03:56:42.630Z,95414.78
2023-01-13T03:59:16.756Z,95424.03
2023-01-13T04:01:46.426Z,95418.38
2023-01-13T04:04:27.033Z,95397.19
2023-01-13T04:07:00.242Z,95426.31
2023-01-13T04:09:52.694Z,95420.03
2023-01-13T04:12:54.774Z,95423.28
2023-01-13T04:15:24.891Z,95423.00
2023-01-13T04:17:52.103Z,95421.28
2023-01-13T04:20:19.110Z,95430.34
2023-01-13T04:22:45.834Z,95428.44
2023-01-13T04:25:12.924Z,95418.97
2023-01-13T04:27:39.570Z,95435.53
2023-01-13T04:30:06.991Z,95442.69
2023-01-13T04:32:33.849Z,95438.66
2023-01-13T04:35:00.603Z,95439.03
2023-01-13T04:37:27.519Z,95428.97
2023-01-13T04:39:54.296Z,95439.16
2023-01-13T04:42:20.998Z,95431.66
2023-01-13T04:44:48.040Z,95444.28
2023-01-13T04:47:14.771Z,95439.66
2023-01-13T04:49:41.625Z,95440.84
2023-01-13T04:52:08.374Z,95442.94
2023-01-13T04:54:35.239Z,95442.69
2023-01-13T04:57:02.014Z,95446.69
2023-01-13T04:59:28.845Z,95443.94
2023-01-13T05:01:55.831Z,95444.88
2023-01-13T05:04:22.705Z,95446.72
2023-01-13T05:06:49.655Z,95441.94
2023-01-13T05:09:16.422Z,95445.44
2023-01-13T05:12:02.001Z,95448.19
2023-01-13T05:14:47.396Z,95450.00
2023-01-13T05:17:20.587Z,95446.50
2023-01-13T05:19:47.705Z,95457.69
2023-01-13T05:22:33.749Z,95451.94
2023-01-13T05:25:19.074Z,95454.13
2023-01-13T05:27:45.836Z,95447.25
2023-01-13T05:30:12.816Z,95448.66
2023-01-13T05:32:39.724Z,95433.16
2023-01-13T05:35:06.636Z,95449.50
2023-01-13T05:37:33.499Z,95456.97
2023-01-13T05:40:18.603Z,95460.50
2023-01-13T05:43:04.394Z,95453.06
2023-01-13T05:45:31.754Z,95463.13
2023-01-13T05:47:58.847Z,95459.91
2023-01-13T05:50:25.711Z,95459.38
2023-01-13T05:52:52.439Z,95462.19
2023-01-13T05:55:19.380Z,95463.13
2023-01-13T05:57:46.182Z,95472.09
2023-01-13T06:00:13.572Z,95475.69
2023-01-13T06:02:40.348Z,95467.22
2023-01-13T06:05:07.859Z,95476.03
2023-01-13T06:07:34.658Z,95478.50
2023-01-13T06:10:01.385Z,95477.81
2023-01-13T06:12:29.026Z,95480.38
2023-01-13T06:14:55.749Z,95483.69
2023-01-13T06:17:22.711Z,95480.31
2023-01-13T06:19:49.506Z,95486.22
2023-01-13T06:22:26.777Z,95480.00
2023-01-13T06:24:54.515Z,95486.53
2023-01-13T06:27:22.451Z,95492.41
2023-01-13T06:29:49.125Z,95492.53
2023-01-13T06:32:19.596Z,95487.41
2023-01-13T06:34:53.328Z,95478.16
2023-01-13T06:37:25.398Z,95485.75
2023-01-13T06:39:58.269Z,95486.16
2023-01-13T06:42:47.319Z,95488.94
2023-01-13T06:45:14.451Z,95481.97
2023-01-13T06:47:41.613Z,95478.38
2023-01-13T06:50:09.214Z,95486.09
2023-01-13T06:52:35.943Z,95487.81
2023-01-13T06:55:03.339Z,95480.88
2023-01-13T06:57:30.097Z,95490.06
2023-01-13T06:59:56.880Z,95492.41
2023-01-13T07:02:23.852Z,95491.78
2023-01-13T07:04:50.650Z,95493.63
2023-01-13T07:07:17.371Z,95497.53
2023-01-13T07:09:44.050Z,95500.03
2023-01-13T07:12:12.021Z,95497.19
2023-01-13T07:14:57.634Z,95490.69
2023-01-13T07:17:25.509Z,95490.56
2023-01-13T07:19:53.231Z,95487.63
2023-01-13T07:22:20.168Z,95488.91
2023-01-13T07:24:47.011Z,95475.81
2023-01-13T07:27:13.701Z,95490.25
2023-01-13T07:29:40.626Z,95482.03
2023-01-13T07:32:07.997Z,95482.84
2023-01-13T07:34:34.793Z,95486.22
2023-01-13T07:37:01.974Z,95478.31
2023-01-13T07:39:28.902Z,95473.91
2023-01-13T07:42:14.142Z,95481.16
2023-01-13T07:44:40.964Z,95486.63
2023-01-13T07:47:10.467Z,95472.13
2023-01-13T07:49:37.432Z,95486.81
2023-01-13T07:54:49.734Z,95479.72
2023-01-13T07:57:16.430Z,95479.19
2023-01-13T07:59:43.199Z,95482.72
2023-01-13T08:02:13.951Z,95483.53
2023-01-13T08:04:40.946Z,95486.16
2023-01-13T08:07:08.095Z,95487.28
2023-01-13T08:09:34.905Z,95482.53
2023-01-13T08:12:20.041Z,95493.75
2023-01-13T08:14:46.834Z,95493.19
2023-01-13T08:17:13.572Z,95493.69
2023-01-13T08:19:40.374Z,95491.34
2023-01-13T08:22:07.226Z,95488.03
2023-01-13T08:24:34.026Z,95490.44
2023-01-13T08:27:00.734Z,95486.78
2023-01-13T08:29:27.613Z,95492.19
2023-01-13T08:31:54.394Z,95493.03
2023-01-13T08:34:21.295Z,95489.00
2023-01-13T08:36:49.979Z,95483.09
2023-01-13T08:39:16.717Z,95480.16
2023-01-13T08:41:56.699Z,95479.81
2023-01-13T08:44:27.443Z,95478.84
2023-01-13T08:46:54.751Z,95483.66
2023-01-13T08:49:22.727Z,95475.06
2023-01-13T08:51:50.268Z,95471.94
2023-01-13T08:54:18.126Z,95463.06
2023-01-13T08:56:45.958Z,95475.72
2023-01-13T08:59:18.111Z,95466.06
2023-01-13T09:01:45.810Z,95467.44
2023-01-13T09:04:18.508Z,95474.22
2023-01-13T09:06:46.299Z,95470.69
2023-01-13T09:09:13.253Z,95466.59
2023-01-13T09:12:04.271Z,95469.38
2023-01-13T09:14:33.180Z,95469.81
2023-01-13T09:17:00.270Z,95468.53
2023-01-13T09:19:28.245Z,95462.88
2023-01-13T09:21:56.296Z,95463.41
2023-01-13T09:24:25.412Z,95468.09
2023-01-13T09:26:53.167Z,95466.50
2023-01-13T09:29:20.087Z,95453.00
2023-01-13T09:31:46.823Z,95448.25
2023-01-13T09:34:35.951Z,95458.66
2023-01-13T09:37:03.655Z,95462.53
2023-01-13T09:39:30.460Z,95458.63
2023-01-13T09:42:21.203Z,95461.94
2023-01-13T09:44:57.781Z,95455.00
2023-01-13T09:48:06.521Z,95462.31
2023-01-13T09:50:52.547Z,95462.44
2023-01-13T09:53:32.465Z,95465.53
2023-01-13T09:56:00.033Z,95458.13
2023-01-13T09:58:27.268Z,95451.34
2023-01-13T10:01:21.113Z,95451.72
2023-01-13T10:03:49.486Z,95444.69
2023-01-13T10:06:34.883Z,95452.94
2023-01-13T10:09:02.105Z,95446.81
2023-01-13T10:12:13.698Z,95450.47
2023-01-13T10:14:54.924Z,95450.47
2023-01-13T10:17:34.134Z,95444.56
2023-01-13T10:20:15.958Z,95436.69
2023-01-13T10:23:06.728Z,95430.59
2023-01-13T10:25:39.398Z,95435.50
2023-01-13T10:28:12.059Z,95441.28
2023-01-13T10:30:42.413Z,95440.22
2023-01-13T10:33:18.081Z,95434.66
2023-01-13T10:35:57.035Z,95436.03
2023-01-13T10:38:34.370Z,95429.41
2023-01-13T10:41:04.751Z,95429.03
2023-01-13T10:43:31.671Z,95427.34
2023-01-13T10:46:07.673Z,95416.84
2023-01-13T10:49:02.467Z,95420.66
2023-01-13T10:51:33.088Z,95417.97
2023-01-13T10:54:14.143Z,95397.28
2023-01-13T10:56:43.457Z,95421.53
2023-01-13T10:59:17.548Z,95411.03
2023-01-13T11:02:13.080Z,95401.72
2023-01-13T11:04:55.780Z,95414.88
2023-01-13T11:07:22.636Z,95417.47
2023-01-13T11:10:01.369Z,95411.84
2023-01-13T11:12:34.169Z,95405.72
2023-01-13T11:15:07.722Z,95403.66
2023-01-13T11:17:40.861Z,95400.44
2023-01-13T11:20:32.501Z,95401.28
2023-01-13T11:23:06.942Z,95401.59
2023-01-13T11:25:43.470Z,95392.22
2023-01-13T11:28:25.667Z,95393.28
2023-01-13T11:31:07.007Z,95393.63
2023-01-13T11:34:01.336Z,95392.56
2023-01-13T11:36:40.340Z,95382.28
2023-01-13T11:39:42.248Z,95387.38
2023-01-13T11:42:21.403Z,95387.47
2023-01-13T11:45:07.210Z,95365.88
2023-01-13T11:47:36.184Z,95383.72
2023-01-13T11:50:03.670Z,95384.72
2023-01-13T11:52:57.306Z,95375.84
2023-01-13T11:55:23.992Z,95380.56
2023-01-13T11:57:50.763Z,95377.00
2023-01-13T12:00:32.723Z,95378.47
2023-01-13T12:03:05.582Z,95375.41
2023-01-13T12:05:44.689Z,95370.72
2023-01-13T12:08:18.711Z,95377.06
2023-01-13T12:10:57.479Z,95366.72
2023-01-13T12:13:36.955Z,95369.19
2023-01-13T12:16:25.463Z,95363.88
2023-01-13T12:19:30.256Z,95365.97
2023-01-13T12:22:01.902Z,95376.06
2023-01-13T12:24:35.208Z,95371.31
2023-01-13T12:27:10.374Z,95365.88
2023-01-13T12:29:38.880Z,95370.41
2023-01-13T12:32:12.685Z,95372.34
2023-01-13T12:34:49.796Z,95368.50
2023-01-13T12:37:35.422Z,95374.88
2023-01-13T12:40:59.447Z,95365.81
2023-01-13T12:43:44.962Z,95372.91
2023-01-13T12:46:23.555Z,95367.16
2023-01-13T12:49:01.950Z,95382.34
2023-01-13T12:51:35.778Z,95343.97
2023-01-13T12:54:23.522Z,95376.81
2023-01-13T12:56:50.704Z,95373.06
2023-01-13T12:59:17.530Z,95379.03
2023-01-13T13:01:46.063Z,95372.44
2023-01-13T13:04:17.189Z,95374.44
2023-01-13T13:06:52.559Z,95374.56
2023-01-13T13:09:31.656Z,95363.75
2023-01-13T13:11:58.632Z,95382.28
2023-01-13T13:14:54.766Z,95392.63
2023-01-13T13:17:31.689Z,95379.66
2023-01-13T13:20:01.421Z,95385.06
2023-01-13T13:22:28.152Z,95383.53
2023-01-13T13:24:54.860Z,95388.88
2023-01-13T13:27:24.304Z,95394.94
2023-01-13T13:30:28.809Z,95392.38
2023-01-13T13:33:39.229Z,95386.94
2023-01-13T13:36:06.143Z,95383.03
2023-01-13T13:39:19.220Z,95386.75
2023-01-13T13:42:09.212Z,95394.56
2023-01-13T13:45:06.269Z,95398.97
2023-01-13T13:47:37.773Z,95400.84
2023-01-13T13:50:20.837Z,95407.59
2023-01-13T13:52:55.208Z,95386.47
2023-01-13T13:55:25.757Z,95395.28
2023-01-13T13:57:55.196Z,95394.28
2023-01-13T14:00:30.190Z,95385.06
2023-01-13T14:03:01.603Z,95394.97
2023-01-13T14:05:29.771Z,95392.47
2023-01-13T14:08:16.047Z,95392.25
2023-01-13T14:10:45.120Z,95392.63
2023-01-13T14:13:25.819Z,95395.72
2023-01-13T14:16:04.788Z,95397.16
2023-01-13T14:18:42.036Z,95392.09
2023-01-13T14:21:23.607Z,95385.25
2023-01-13T14:23:59.137Z,95395.81
2023-01-13T14:26:29.000Z,95393.94
2023-01-13T14:28:57.769Z,95387.09
2023-01-13T14:31:25.107Z,95392.41
2023-01-13T14:33:54.841Z,95406.06
2023-01-13T14:36:33.773Z,95396.81
2023-01-13T14:39:03.440Z,95397.09
2023-01-13T14:41:38.014Z,95397.09
2023-01-13T14:44:35.065Z,95403.16
2023-01-13T14:47:05.376Z,95398.97
2023-01-13T14:49:32.259Z,95392.53
2023-01-13T14:52:12.563Z,95411.50
2023-01-13T14:54:50.115Z,95410.84
2023-01-13T14:57:29.726Z,95415.53
2023-01-13T14:59:59.330Z,95411.28
2023-01-13T15:02:29.186Z,95411.50
2023-01-13T15:05:18.956Z,95412.47
2023-01-13T15:07:59.390Z,95416.41
2023-01-13T15:10:32.682Z,95415.59
2023-01-13T15:13:03.662Z,95420.38
2023-01-13T15:15:33.528Z,95422.38
2023-01-13T15:18:01.794Z,95419.00
2023-01-13T15:20:29.063Z,95412.22
2023-01-13T15:22:58.683Z,95424.56
2023-01-13T15:25:25.601Z,95420.34
2023-01-13T15:27:53.092Z,95421.31
2023-01-13T15:30:25.088Z,95419.47
2023-01-13T15:32:54.947Z,95424.38
2023-01-13T15:35:24.003Z,95429.16
2023-01-13T15:37:51.698Z,95432.91
2023-01-13T15:40:31.693Z,95431.03
2023-01-13T15:43:17.120Z,95426.59
2023-01-13T15:46:02.812Z,95431.59
2023-01-13T15:48:32.151Z,95431.91
2023-01-13T15:51:00.138Z,95429.63
2023-01-13T15:53:28.015Z,95430.06
2023-01-13T15:55:57.765Z,95427.34
2023-01-13T15:58:28.282Z,95433.09
2023-01-13T16:00:55.631Z,95440.66
2023-01-13T16:03:22.688Z,95432.81
2023-01-13T16:05:50.542Z,95427.66
2023-01-13T16:08:19.303Z,95430.69
2023-01-13T16:10:46.778Z,95437.63
2023-01-13T16:13:14.886Z,95435.59
2023-01-13T16:15:48.149Z,95439.25
2023-01-13T16:18:24.424Z,95427.47
2023-01-13T16:20:55.256Z,95421.66
2023-01-13T16:23:23.194Z,95426.72
2023-01-13T16:25:50.566Z,95436.44
2023-01-13T16:28:24.025Z,95431.81
2023-01-13T16:30:51.435Z,95429.06
2023-01-13T16:33:18.278Z,95429.13
2023-01-13T16:36:10.687Z,95428.34
2023-01-13T16:38:32.001Z,95436.56
2023-01-13T16:40:58.790Z,95436.00
2023-01-13T16:43:27.856Z,95427.69
2023-01-13T16:45:54.706Z,95431.81
2023-01-13T16:48:22.824Z,95421.56
2023-01-13T16:50:49.668Z,95426.06
2023-01-13T16:53:16.767Z,95425.78
2023-01-13T16:55:44.607Z,95429.75
2023-01-13T16:58:20.129Z,95434.19
2023-01-13T17:00:47.850Z,95434.06
2023-01-13T17:03:15.698Z,95434.78
2023-01-13T17:05:44.694Z,95437.69
2023-01-13T17:08:17.722Z,95441.97
2023-01-13T17:10:47.875Z,95434.03
2023-01-13T17:13:16.652Z,95433.84
2023-01-13T17:15:45.240Z,95437.25
2023-01-13T17:18:13.517Z,95430.88
2023-01-13T17:20:41.063Z,95433.59
2023-01-13T17:23:07.913Z,95427.16
2023-01-13T17:25:34.847Z,95430.22
2023-01-13T17:28:01.558Z,95442.22
2023-01-13T17:30:28.327Z,95434.44
2023-01-13T17:32:55.158Z,95430.34
2023-01-13T17:35:24.895Z,95424.19
2023-01-13T17:37:53.299Z,95434.56
2023-01-13T17:40:20.466Z,95425.69
2023-01-13T17:42:47.327Z,95434.19
2023-01-13T17:45:14.120Z,95431.78
2023-01-13T17:47:41.012Z,95437.38
2023-01-13T17:50:08.215Z,95428.81
2023-01-13T17:52:35.182Z,95432.88
2023-01-13T17:55:02.017Z,95437.63
2023-01-13T17:57:28.929Z,95439.50
2023-01-13T17:59:58.243Z,95431.31
2023-01-13T18:02:26.225Z,95428.06
2023-01-13T18:04:53.168Z,95441.22
2023-01-13T18:07:20.006Z,95437.91
2023-01-13T18:09:48.055Z,95447.25
2023-01-13T18:12:15.056Z,95443.56
2023-01-13T18:14:41.866Z,95440.66
2023-01-13T18:17:08.606Z,95441.41
2023-01-13T18:19:54.031Z,95429.72
2023-01-13T18:22:39.228Z,95445.81
2023-01-13T18:25:29.667Z,95432.16
2023-01-13T18:27:57.104Z,95441.88
2023-01-13T18:30:23.797Z,95449.31
2023-01-13T18:32:50.509Z,95448.72
2023-01-13T18:35:17.616Z,95447.13
2023-01-13T18:37:44.416Z,95439.03
2023-01-13T18:40:13.799Z,95443.88
2023-01-13T18:42:54.596Z,95441.50
2023-01-13T18:45:26.743Z,95442.63
2023-01-13T18:47:55.186Z,95434.78
2023-01-13T18:50:23.059Z,95441.81
2023-01-13T18:52:50.309Z,95438.84
2023-01-13T18:55:17.567Z,95436.84
2023-01-13T18:57:44.753Z,95441.38
2023-01-13T19:00:14.848Z,95433.63
2023-01-13T19:02:41.740Z,95442.03
2023-01-13T19:05:08.801Z,95436.06
2023-01-13T19:07:36.418Z,95434.97
2023-01-13T19:10:04.899Z,95441.03
2023-01-13T19:12:34.064Z,95431.88
2023-01-13T19:15:01.941Z,95423.13
2023-01-13T19:17:34.361Z,95424.59
2023-01-13T19:20:01.527Z,95426.81
2023-01-13T19:22:33.490Z,95430.25
2023-01-13T19:25:01.913Z,95421.13
2023-01-13T19:27:29.209Z,95424.91
2023-01-13T19:29:58.766Z,95421.63
2023-01-13T19:32:25.950Z,95424.28
2023-01-13T19:34:55.037Z,95428.06
2023-01-13T19:37:22.074Z,95427.34
2023-01-13T19:39:48.934Z,95430.78
2023-01-13T19:42:34.512Z,95407.16
2023-01-13T19:45:19.839Z,95417.47
2023-01-13T19:47:47.067Z,95417.16
2023-01-13T19:50:14.339Z,95424.78
2023-01-13T19:52:44.654Z,95431.34
2023-01-13T19:55:12.487Z,95421.63
2023-01-13T19:57:40.228Z,95421.56
2023-01-13T20:00:08.476Z,95424.56
2023-01-13T20:02:47.824Z,95423.13
2023-01-13T20:05:18.242Z,95420.13
2023-01-13T20:07:45.041Z,95419.56
2023-01-13T20:10:13.330Z,95425.59
2023-01-13T20:12:41.684Z,95424.50
2023-01-13T20:15:12.094Z,95422.22
2023-01-13T20:17:40.504Z,95422.94
2023-01-13T20:20:09.043Z,95427.25
2023-01-13T20:22:37.515Z,95432.28
2023-01-13T20:25:05.174Z,95422.59
2023-01-13T20:27:31.921Z,95418.59
2023-01-13T20:29:59.147Z,95416.53
2023-01-13T20:32:25.925Z,95410.66
2023-01-13T20:34:52.913Z,95425.94
2023-01-13T20:37:19.587Z,95418.66
2023-01-13T20:39:46.957Z,95410.41
2023-01-13T20:42:46.398Z,95414.56
2023-01-13T20:45:18.090Z,95411.19
2023-01-13T20:47:45.209Z,95407.63
2023-01-13T20:50:12.665Z,95413.88
2023-01-13T20:52:39.449Z,95413.06
2023-01-13T20:55:07.517Z,95397.44
2023-01-13T20:57:35.103Z,95400.03
2023-01-13T21:00:02.983Z,95407.56
2023-01-13T21:02:30.163Z,95411.72
2023-01-13T21:04:57.005Z,95401.19
2023-01-13T21:07:24.167Z,95405.97
2023-01-13T21:09:51.015Z,95406.22
2023-01-13T21:12:36.194Z,95402.47
2023-01-13T21:15:29.668Z,95404.38
2023-01-13T21:18:15.174Z,95409.63
2023-01-13T21:20:42.192Z,95403.94
2023-01-13T21:23:10.935Z,95405.66
2023-01-13T21:25:39.771Z,95407.94
2023-01-13T21:28:07.654Z,95408.63
2023-01-13T21:30:34.938Z,95421.16
2023-01-13T21:33:04.009Z,95411.81
2023-01-13T21:35:31.018Z,95417.47
2023-01-13T21:37:57.970Z,95426.59
2023-01-13T21:40:24.771Z,95417.03
2023-01-13T21:43:10.319Z,95421.09
2023-01-13T21:45:57.924Z,95422.81
2023-01-13T21:48:24.770Z,95426.50
2023-01-13T21:50:51.534Z,95422.34
2023-01-13T21:53:18.457Z,95422.03
2023-01-13T21:55:45.188Z,95422.31
2023-01-13T21:58:14.819Z,95413.81
2023-01-13T22:00:43.841Z,95421.63
2023-01-13T22:03:12.536Z,95419.66
2023-01-13T22:05:39.745Z,95421.66
2023-01-13T22:08:07.702Z,95413.19
2023-01-13T22:10:35.166Z,95427.16
2023-01-13T22:13:22.894Z,95410.03
2023-01-13T22:15:50.106Z,95410.03
2023-01-13T22:18:18.375Z,95407.53
2023-01-13T22:20:46.173Z,95414.97
2023-01-13T22:23:13.063Z,95413.19
2023-01-13T22:25:39.926Z,95405.88
2023-01-13T22:28:09.171Z,95408.81
2023-01-13T22:30:36.453Z,95404.44
2023-01-13T22:33:03.596Z,95401.25
2023-01-13T22:35:30.523Z,95403.63
2023-01-13T22:37:58.258Z,95395.22
2023-01-13T22:40:25.218Z,95394.16
2023-01-13T22:42:52.025Z,95392.59
2023-01-13T22:45:18.968Z,95397.41
2023-01-13T22:47:46.057Z,95406.97
2023-01-13T22:50:12.971Z,95403.91
2023-01-13T22:52:39.841Z,95401.31
2023-01-13T22:55:07.583Z,95395.94
2023-01-13T22:57:46.729Z,95397.03
2023-01-13T23:00:15.221Z,95389.97
2023-01-13T23:02:42.493Z,95390.09
2023-01-13T23:05:09.389Z,95396.66
2023-01-13T23:07:36.337Z,95399.88
2023-01-13T23:10:04.176Z,95399.38
2023-01-13T23:12:30.959Z,95403.53
2023-01-13T23:14:57.863Z,95406.00
2023-01-13T23:17:24.641Z,95403.47
2023-01-13T23:19:51.271Z,95404.56
2023-01-13T23:22:18.237Z,95393.88
2023-01-13T23:24:45.748Z,95394.88
2023-01-13T23:27:12.543Z,95396.66
2023-01-13T23:29:39.315Z,95386.81
2023-01-13T23:32:06.280Z,95389.94
2023-01-13T23:34:33.102Z,95385.25
2023-01-13T23:37:00.004Z,95384.66
2023-01-13T23:39:26.946Z,95381.91
2023-01-13T23:41:54.506Z,95384.94
2023-01-13T23:44:21.194Z,95382.94
2023-01-13T23:46:47.997Z,95391.50
2023-01-13T23:49:14.729Z,95383.38
2023-01-13T23:51:41.564Z,95377.09
2023-01-13T23:54:08.299Z,95381.28
2023-01-13T23:56:39.317Z,95384.13
2023-01-13T23:59:06.563Z,95384.16
